Time;durP1;ratioP1;P1;durP2;ratioP2;P2;SDS_P1;SDS_P2;PMS_P1;PMS_P2;Temp;Humidity;BMP_temperature;BMP_pressure;BME280_temperature;BME280_humidity;BME280_pressure;Samples;Min_cycle;Max_cycle;Signal;HPM_P1;HPM_P2
2021/09/10 00:02:04;;;;;;;;;;;21.60;99.90;;;;;;1882896;75;20124;-67
2021/09/10 00:04:31;;;;;;;;;;;21.50;99.90;;;;;;1855810;75;20271;-67
2021/09/10 00:06:58;;;;;;;;;;;21.50;99.90;;;;;;1866594;75;20220;-67
2021/09/10 00:09:24;;;;;;;;;;;21.50;99.90;;;;;;1895033;75;20118;-67
2021/09/10 00:11:51;;;;;;;;;;;21.40;99.90;;;;;;1879531;74;20195;-67
2021/09/10 00:14:18;;;;;;;;;;;21.30;99.90;;;;;;1878973;75;20192;-67
2021/09/10 00:16:45;;;;;;;;;;;21.00;99.90;;;;;;1891983;75;20142;-67
2021/09/10 00:19:11;;;;;;;;;;;21.00;99.90;;;;;;1903295;75;20213;-67
2021/09/10 00:21:38;;;;;;;;;;;20.90;99.90;;;;;;1890737;74;20454;-67
2021/09/10 00:24:05;;;;;;;;;;;20.70;99.90;;;;;;1854375;76;20183;-67
2021/09/10 00:26:32;;;;;;;;;;;20.70;99.90;;;;;;1849687;75;20181;-67
2021/09/10 00:28:59;;;;;;;;;;;20.60;99.90;;;;;;1860899;75;20130;-67
2021/09/10 00:31:26;;;;;;;;;;;20.60;99.90;;;;;;1901237;74;20154;-67
2021/09/10 00:33:52;;;;;;;;;;;20.60;99.90;;;;;;1873546;75;20162;-67
2021/09/10 00:36:19;;;;;;;;;;;20.60;99.90;;;;;;1887692;75;20119;-67
2021/09/10 00:38:46;;;;;;;;;;;20.60;99.90;;;;;;1852632;75;20484;-67
2021/09/10 00:41:13;;;;;;;;;;;20.60;99.90;;;;;;1847302;75;20200;-67
2021/09/10 00:43:40;;;;;;;;;;;20.60;99.90;;;;;;1859236;75;20442;-69
2021/09/10 00:46:06;;;;;;;;;;;20.70;99.90;;;;;;1895041;75;20185;-68
2021/09/10 00:48:33;;;;;;;;;;;20.60;99.90;;;;;;1859741;75;20431;-67
2021/09/10 00:51:00;;;;;;;;;;;20.60;99.90;;;;;;1859006;75;20220;-68
2021/09/10 00:53:27;;;;;;;;;;;20.50;99.90;;;;;;1849354;78;20197;-67
2021/09/10 00:55:54;;;;;;;;;;;20.40;99.90;;;;;;1854614;75;20846;-68
2021/09/10 00:58:21;;;;;;;;;;;20.40;99.90;;;;;;1893931;75;20162;-68
2021/09/10 01:00:48;;;;;;;;;;;20.40;99.90;;;;;;1864660;75;20117;-67
2021/09/10 01:03:15;;;;;;;;;;;20.40;99.90;;;;;;1873533;75;20201;-67
2021/09/10 01:05:42;;;;;;;;;;;20.40;99.90;;;;;;1862109;75;20253;-67
2021/09/10 01:08:11;;;;;;;;;;;20.50;99.90;;;;;;1874657;75;20204;-68
2021/09/10 01:10:38;;;;;;;;;;;20.40;99.90;;;;;;1872668;75;20152;-67
2021/09/10 01:13:05;;;;;;;;;;;20.50;99.90;;;;;;1880994;75;20219;-67
2021/09/10 01:15:32;;;;;;;;;;;20.40;99.90;;;;;;1860359;75;20307;-67
2021/09/10 01:17:59;;;;;;;;;;;20.40;99.90;;;;;;1899999;75;20176;-67
2021/09/10 01:20:26;;;;;;;;;;;20.50;99.90;;;;;;1881188;74;20203;-67
2021/09/10 01:22:53;;;;;;;;;;;20.60;99.90;;;;;;1877971;75;20278;-67
2021/09/10 01:25:20;;;;;;;;;;;20.50;99.90;;;;;;1852604;76;20228;-67
2021/09/10 01:27:48;;;;;;;;;;;20.40;99.90;;;;;;1869286;75;20187;-67
2021/09/10 01:30:17;;;;;;;;;;;20.50;99.90;;;;;;1881129;74;20185;-67
2021/09/10 01:32:44;;;;;;;;;;;20.50;99.90;;;;;;1853841;75;20243;-67
2021/09/10 01:35:12;;;;;;;;;;;20.60;99.90;;;;;;1856077;75;20259;-68
2021/09/10 01:37:39;;;;;;;;;;;20.70;99.90;;;;;;1859832;75;20219;-69
2021/09/10 01:40:07;;;;;;;;;;;20.70;99.90;;;;;;1863357;75;20204;-69
2021/09/10 01:42:34;;;;;;;;;;;20.70;99.90;;;;;;1873708;75;20173;-68
2021/09/10 01:45:00;;;;;;;;;;;20.70;99.90;;;;;;1880980;75;20250;-69
2021/09/10 01:47:27;;;;;;;;;;;20.70;99.90;;;;;;1872920;75;20200;-68
2021/09/10 01:49:54;;;;;;;;;;;20.70;99.90;;;;;;1887352;74;20161;-69
2021/09/10 01:52:21;;;;;;;;;;;20.70;99.90;;;;;;1905586;75;20162;-68
2021/09/10 01:54:48;;;;;;;;;;;20.70;99.90;;;;;;1863636;75;20215;-68
2021/09/10 01:57:14;;;;;;;;;;;20.70;99.90;;;;;;1851391;76;20302;-68
2021/09/10 02:00:00;;;;;;;;;;;20.60;99.90;;;;;;1855440;74;20227;-68
2021/09/10 02:02:27;;;;;;;;;;;20.60;99.90;;;;;;1936322;73;20222;-66
2021/09/10 02:04:54;;;;;;;;;;;20.60;99.90;;;;;;1930812;73;20214;-66
2021/09/10 02:07:21;;;;;;;;;;;20.50;99.90;;;;;;1931295;73;20123;-67
2021/09/10 02:09:48;;;;;;;;;;;20.60;99.90;;;;;;1945649;73;20149;-66
2021/09/10 02:12:14;;;;;;;;;;;20.60;99.90;;;;;;1922302;73;20320;-67
2021/09/10 02:14:41;;;;;;;;;;;20.50;99.90;;;;;;1903604;73;20238;-68
2021/09/10 02:17:08;;;;;;;;;;;20.50;99.90;;;;;;1949243;73;20163;-68
2021/09/10 02:19:35;;;;;;;;;;;20.70;99.90;;;;;;1919383;73;20198;-67
2021/09/10 02:22:02;;;;;;;;;;;20.70;99.90;;;;;;1920139;73;20100;-68
2021/09/10 02:24:29;;;;;;;;;;;20.80;99.90;;;;;;1937523;73;20175;-67
2021/09/10 02:26:56;;;;;;;;;;;20.70;99.90;;;;;;1932645;73;20140;-67
2021/09/10 02:29:22;;;;;;;;;;;20.70;99.90;;;;;;1930319;73;20167;-68
2021/09/10 02:31:49;;;;;;;;;;;20.80;99.90;;;;;;1935661;73;20338;-67
2021/09/10 02:34:16;;;;;;;;;;;21.00;99.90;;;;;;1914191;73;20468;-67
2021/09/10 02:36:43;;;;;;;;;;;21.00;99.90;;;;;;1906320;73;20187;-68
2021/09/10 02:39:11;;;;;;;;;;;21.00;99.90;;;;;;1946086;73;20195;-68
2021/09/10 02:41:39;;;;;;;;;;;21.10;99.90;;;;;;1913464;73;20116;-67
2021/09/10 02:44:06;;;;;;;;;;;21.10;99.90;;;;;;1938528;73;20182;-67
2021/09/10 02:46:33;;;;;;;;;;;21.00;99.90;;;;;;1944643;73;20171;-67
2021/09/10 02:49:01;;;;;;;;;;;21.00;99.90;;;;;;1941152;73;20169;-67
2021/09/10 02:51:28;;;;;;;;;;;21.00;99.90;;;;;;1909225;73;20181;-67
2021/09/10 02:53:54;;;;;;;;;;;21.00;99.90;;;;;;1920323;73;21277;-67
2021/09/10 02:56:21;;;;;;;;;;;21.00;99.90;;;;;;1946933;73;20159;-67
2021/09/10 02:58:48;;;;;;;;;;;20.90;99.90;;;;;;1943246;73;20425;-67
2021/09/10 03:01:15;;;;;;;;;;;20.90;99.90;;;;;;1918814;73;20368;-68
2021/09/10 03:03:42;;;;;;;;;;;21.00;99.90;;;;;;1921961;73;20220;-67
2021/09/10 03:06:09;;;;;;;;;;;21.00;99.90;;;;;;1923379;73;20533;-68
2021/09/10 03:08:35;;;;;;;;;;;20.90;99.90;;;;;;1944647;73;20182;-68
2021/09/10 03:11:02;;;;;;;;;;;20.90;99.90;;;;;;1931643;73;20175;-68
2021/09/10 03:13:29;;;;;;;;;;;20.80;99.90;;;;;;1936311;73;20169;-67
2021/09/10 03:15:56;;;;;;;;;;;20.70;99.90;;;;;;1921610;73;20202;-68
2021/09/10 03:18:22;;;;;;;;;;;20.70;99.90;;;;;;1945640;73;20430;-68
2021/09/10 03:20:49;;;;;;;;;;;20.80;99.90;;;;;;1942855;73;20149;-68
2021/09/10 03:23:16;;;;;;;;;;;20.70;99.90;;;;;;1901951;73;20454;-68
2021/09/10 03:25:43;;;;;;;;;;;20.70;99.90;;;;;;1918624;73;20120;-68
2021/09/10 03:28:10;;;;;;;;;;;20.70;99.90;;;;;;1936387;73;20584;-67
2021/09/10 03:30:37;;;;;;;;;;;20.70;99.90;;;;;;1951617;73;20139;-67
2021/09/10 03:33:03;;;;;;;;;;;20.70;99.90;;;;;;1929936;73;20103;-68
2021/09/10 03:35:30;;;;;;;;;;;20.70;99.90;;;;;;1921139;73;20849;-67
2021/09/10 03:37:57;;;;;;;;;;;20.70;99.90;;;;;;1936052;73;20116;-67
2021/09/10 03:40:25;;;;;;;;;;;20.70;99.90;;;;;;1936701;73;20772;-68
2021/09/10 03:42:52;;;;;;;;;;;20.70;99.90;;;;;;1921382;73;20473;-68
2021/09/10 03:45:19;;;;;;;;;;;20.70;99.90;;;;;;1941915;73;20519;-67
2021/09/10 03:47:46;;;;;;;;;;;20.60;99.90;;;;;;1932361;73;20256;-67
2021/09/10 03:50:12;;;;;;;;;;;20.50;99.90;;;;;;1942916;73;20405;-67
2021/09/10 03:52:39;;;;;;;;;;;20.50;99.90;;;;;;1942012;73;20180;-67
2021/09/10 03:55:07;;;;;;;;;;;20.40;99.90;;;;;;1938312;73;20350;-67
2021/09/10 03:57:33;;;;;;;;;;;20.30;99.90;;;;;;1915319;73;20126;-67
2021/09/10 04:00:00;;;;;;;;;;;20.40;99.90;;;;;;1933069;73;20324;-67
2021/09/10 04:02:27;;;;;;;;;;;20.40;99.90;;;;;;1916480;73;20250;-67
2021/09/10 04:04:54;;;;;;;;;;;20.40;99.90;;;;;;1914627;73;20133;-67
2021/09/10 04:07:21;;;;;;;;;;;20.30;99.90;;;;;;1935771;73;20177;-67
2021/09/10 04:09:47;;;;;;;;;;;20.30;99.90;;;;;;1938990;73;20194;-67
2021/09/10 04:12:14;;;;;;;;;;;20.30;99.90;;;;;;1946053;73;20163;-67
2021/09/10 04:14:41;;;;;;;;;;;20.20;99.90;;;;;;1931983;73;20463;-67
2021/09/10 04:17:08;;;;;;;;;;;20.30;99.90;;;;;;1941885;73;20263;-67
2021/09/10 04:19:34;;;;;;;;;;;20.30;99.90;;;;;;1949962;73;20412;-67
2021/09/10 04:22:01;;;;;;;;;;;20.20;99.90;;;;;;1934446;73;20175;-67
2021/09/10 04:24:28;;;;;;;;;;;20.30;99.90;;;;;;1931618;73;20436;-67
2021/09/10 04:26:55;;;;;;;;;;;20.40;99.90;;;;;;1947800;73;20116;-68
2021/09/10 04:29:22;;;;;;;;;;;20.40;99.90;;;;;;1930611;73;20969;-68
2021/09/10 04:31:48;;;;;;;;;;;20.30;99.90;;;;;;1915255;73;20105;-69
2021/09/10 04:34:15;;;;;;;;;;;20.30;99.90;;;;;;1949087;73;20175;-68
2021/09/10 04:36:42;;;;;;;;;;;20.20;99.90;;;;;;1927287;73;20246;-68
2021/09/10 04:39:09;;;;;;;;;;;20.20;99.90;;;;;;1917039;73;20247;-68
2021/09/10 04:41:36;;;;;;;;;;;20.20;99.90;;;;;;1934820;73;20212;-68
2021/09/10 04:44:02;;;;;;;;;;;20.20;99.90;;;;;;1911823;73;20196;-68
2021/09/10 04:46:29;;;;;;;;;;;20.20;99.90;;;;;;1951239;73;20410;-69
2021/09/10 04:48:56;;;;;;;;;;;20.10;99.90;;;;;;1947753;73;20505;-68
2021/09/10 04:51:23;;;;;;;;;;;20.10;99.90;;;;;;1919495;73;20105;-66
2021/09/10 04:53:50;;;;;;;;;;;20.00;99.90;;;;;;1945959;73;20480;-68
2021/09/10 04:56:17;;;;;;;;;;;19.90;99.90;;;;;;1921100;73;20443;-68
2021/09/10 04:58:44;;;;;;;;;;;19.90;99.90;;;;;;1940651;73;20272;-69
2021/09/10 05:01:11;;;;;;;;;;;19.90;99.90;;;;;;1929453;73;20167;-68
2021/09/10 05:03:38;;;;;;;;;;;20.00;99.90;;;;;;1948145;73;20158;-68
2021/09/10 05:06:04;;;;;;;;;;;20.00;99.90;;;;;;1950369;73;20163;-68
2021/09/10 05:08:31;;;;;;;;;;;20.00;99.90;;;;;;1925601;73;20111;-68
2021/09/10 05:10:58;;;;;;;;;;;20.00;99.90;;;;;;1919004;73;20274;-67
2021/09/10 05:13:25;;;;;;;;;;;20.00;99.90;;;;;;1920259;73;20200;-67
2021/09/10 05:15:52;;;;;;;;;;;20.00;99.90;;;;;;1939081;73;20124;-66
2021/09/10 05:18:18;;;;;;;;;;;20.00;99.90;;;;;;1914551;73;20196;-66
2021/09/10 05:20:45;;;;;;;;;;;20.00;99.90;;;;;;1921881;73;20174;-66
2021/09/10 05:23:12;;;;;;;;;;;20.00;99.90;;;;;;1925568;73;20118;-66
2021/09/10 05:25:39;;;;;;;;;;;20.00;99.90;;;;;;1938698;73;20515;-67
2021/09/10 05:28:06;;;;;;;;;;;19.90;99.90;;;;;;1937294;73;20166;-67
2021/09/10 05:30:32;;;;;;;;;;;19.90;99.90;;;;;;1937521;73;20571;-65
2021/09/10 05:32:59;;;;;;;;;;;19.90;99.90;;;;;;1892764;73;20262;-66
2021/09/10 05:35:26;;;;;;;;;;;19.90;99.90;;;;;;1917705;75;20407;-67
2021/09/10 05:37:53;;;;;;;;;;;19.90;99.90;;;;;;1922047;73;20176;-66
2021/09/10 05:40:21;;;;;;;;;;;19.90;99.90;;;;;;1893585;73;20222;-66
2021/09/10 05:42:49;;;;;;;;;;;20.00;99.90;;;;;;1949765;73;20113;-66
2021/09/10 05:45:16;;;;;;;;;;;20.00;99.90;;;;;;1945016;73;20159;-67
2021/09/10 05:47:43;;;;;;;;;;;19.90;99.90;;;;;;1933664;73;20246;-67
2021/09/10 05:50:10;;;;;;;;;;;19.90;99.90;;;;;;1924229;73;20462;-67
2021/09/10 05:52:37;;;;;;;;;;;19.90;99.90;;;;;;1912365;73;20447;-67
2021/09/10 05:55:04;;;;;;;;;;;19.80;99.90;;;;;;1928144;73;20174;-67
2021/09/10 05:57:31;;;;;;;;;;;19.80;99.90;;;;;;1927945;73;20148;-67
2021/09/10 05:59:58;;;;;;;;;;;19.80;99.90;;;;;;1924828;73;20274;-67
2021/09/10 06:02:24;;;;;;;;;;;19.80;99.90;;;;;;1909852;75;20122;-66
2021/09/10 06:04:51;;;;;;;;;;;19.90;99.90;;;;;;1929194;73;20159;-67
2021/09/10 06:07:18;;;;;;;;;;;19.80;99.90;;;;;;1931576;73;20181;-67
2021/09/10 06:09:45;;;;;;;;;;;19.80;99.90;;;;;;1910885;73;20270;-67
2021/09/10 06:12:12;;;;;;;;;;;19.80;99.90;;;;;;1921952;73;20212;-67
2021/09/10 06:14:39;;;;;;;;;;;19.90;99.90;;;;;;1914499;73;20142;-67
2021/09/10 06:17:05;;;;;;;;;;;19.80;99.90;;;;;;1949206;73;20174;-67
2021/09/10 06:19:33;;;;;;;;;;;19.90;99.90;;;;;;1949813;73;20186;-69
2021/09/10 06:22:00;;;;;;;;;;;20.00;99.90;;;;;;1924732;73;20851;-68
2021/09/10 06:24:27;;;;;;;;;;;19.90;99.90;;;;;;1917371;73;20631;-66
2021/09/10 06:26:53;;;;;;;;;;;20.00;99.90;;;;;;1923713;73;20123;-70
2021/09/10 06:29:20;;;;;;;;;;;19.90;99.90;;;;;;1920397;73;20180;-68
2021/09/10 06:31:49;;;;;;;;;;;19.90;99.90;;;;;;1917775;73;20205;-68
2021/09/10 06:34:20;;;;;;;;;;;19.90;99.90;;;;;;1933232;73;20914;-68
2021/09/10 06:36:44;;;;;;;;;;;19.90;99.90;;;;;;1935571;73;20161;-68
2021/09/10 06:39:11;;;;;;;;;;;19.80;99.90;;;;;;1913188;73;20161;-67
2021/09/10 06:41:37;;;;;;;;;;;19.80;99.90;;;;;;1889954;75;20119;-67
2021/09/10 06:44:04;;;;;;;;;;;19.90;99.90;;;;;;1918859;73;20170;-67
2021/09/10 06:46:31;;;;;;;;;;;19.70;99.90;;;;;;1917606;75;20154;-67
2021/09/10 06:48:58;;;;;;;;;;;19.60;99.90;;;;;;1936981;73;20124;-68
2021/09/10 06:51:25;;;;;;;;;;;19.60;99.90;;;;;;1936428;73;20725;-67
2021/09/10 06:53:51;;;;;;;;;;;19.60;99.90;;;;;;1918829;73;20241;-66
2021/09/10 06:56:18;;;;;;;;;;;19.60;99.90;;;;;;1924240;73;20395;-66
2021/09/10 06:58:45;;;;;;;;;;;19.60;99.90;;;;;;1917353;75;20130;-66
2021/09/10 07:01:12;;;;;;;;;;;19.60;99.90;;;;;;1918383;75;20106;-67
2021/09/10 07:03:39;;;;;;;;;;;19.60;99.90;;;;;;1917306;75;20158;-67
2021/09/10 07:06:10;;;;;;;;;;;19.50;99.90;;;;;;1900063;75;20119;-67
2021/09/10 07:08:34;;;;;;;;;;;19.50;99.90;;;;;;1894214;75;20430;-67
2021/09/10 07:11:03;;;;;;;;;;;19.50;99.90;;;;;;1946168;73;20171;-67
2021/09/10 07:13:30;;;;;;;;;;;19.40;99.90;;;;;;1883493;76;20366;-67
2021/09/10 07:15:57;;;;;;;;;;;19.40;99.90;;;;;;1945238;73;20174;-67
2021/09/10 07:18:24;;;;;;;;;;;19.40;99.90;;;;;;1928561;73;20173;-67
2021/09/10 07:20:51;;;;;;;;;;;19.30;99.90;;;;;;1917706;75;20211;-67
2021/09/10 07:23:18;;;;;;;;;;;19.30;99.90;;;;;;1923263;73;20183;-67
2021/09/10 07:25:45;;;;;;;;;;;19.30;99.90;;;;;;1923282;73;20118;-67
2021/09/10 07:28:11;;;;;;;;;;;19.30;99.90;;;;;;1931752;73;20163;-67
2021/09/10 07:30:38;;;;;;;;;;;19.40;99.90;;;;;;1950389;73;20112;-67
2021/09/10 07:33:05;;;;;;;;;;;19.50;99.90;;;;;;1949667;73;20189;-67
2021/09/10 07:35:32;;;;;;;;;;;19.50;99.90;;;;;;1924114;73;20173;-67
2021/09/10 07:38:00;;;;;;;;;;;19.40;99.90;;;;;;1928634;73;20112;-67
2021/09/10 07:40:26;;;;;;;;;;;19.30;99.90;;;;;;1910072;73;20167;-67
2021/09/10 07:42:53;;;;;;;;;;;19.40;99.90;;;;;;1901140;73;20208;-67
2021/09/10 07:45:20;;;;;;;;;;;19.40;99.90;;;;;;1921297;73;20183;-67
2021/09/10 07:47:47;;;;;;;;;;;19.30;99.90;;;;;;1951466;73;20178;-67
2021/09/10 07:50:14;;;;;;;;;;;19.30;99.90;;;;;;1946735;73;20178;-67
2021/09/10 07:52:40;;;;;;;;;;;19.30;99.90;;;;;;1917819;75;20203;-67
2021/09/10 07:55:07;;;;;;;;;;;19.30;99.90;;;;;;1920960;73;20404;-67
2021/09/10 07:57:34;;;;;;;;;;;19.40;99.90;;;;;;1950926;73;20163;-68
2021/09/10 08:00:02;;;;;;;;;;;19.30;99.90;;;;;;1951808;73;20198;-67
2021/09/10 08:02:29;;;;;;;;;;;19.30;99.90;;;;;;1917093;73;20239;-67
2021/09/10 08:07:44;;;;;;;;;;;19.30;99.90;;;;;;1917094;75;20176;-67
2021/09/10 08:10:16;;;;;;;;;;;19.30;99.90;;;;;;1919024;75;20171;-67
2021/09/10 08:12:40;;;;;;;;;;;19.30;99.90;;;;;;1862556;76;20575;-68
2021/09/10 08:15:08;;;;;;;;;;;19.30;99.90;;;;;;1858972;77;20417;-68
2021/09/10 08:17:34;;;;;;;;;;;19.30;99.90;;;;;;1859157;76;20229;-68
2021/09/10 08:20:01;;;;;;;;;;;19.30;99.90;;;;;;1863631;75;20244;-68
2021/09/10 08:22:28;;;;;;;;;;;19.30;99.90;;;;;;1889951;75;20466;-68
2021/09/10 08:24:56;;;;;;;;;;;19.50;99.90;;;;;;1889923;76;20208;-68
2021/09/10 08:27:23;;;;;;;;;;;19.50;99.90;;;;;;1888121;75;20192;-68
2021/09/10 08:29:49;;;;;;;;;;;19.50;99.90;;;;;;1890727;75;20204;-68
2021/09/10 08:32:16;;;;;;;;;;;19.40;99.90;;;;;;1889582;76;20126;-68
2021/09/10 08:34:43;;;;;;;;;;;19.50;99.90;;;;;;1880047;75;20197;-68
2021/09/10 08:37:10;;;;;;;;;;;19.60;99.90;;;;;;1892679;75;20419;-68
2021/09/10 08:39:37;;;;;;;;;;;19.60;99.90;;;;;;1885111;76;20201;-68
2021/09/10 08:42:03;;;;;;;;;;;19.50;99.90;;;;;;1870949;76;20488;-68
2021/09/10 08:44:31;;;;;;;;;;;19.40;99.90;;;;;;1894537;75;20156;-68
2021/09/10 08:46:58;;;;;;;;;;;19.50;99.90;;;;;;1890644;75;20157;-68
2021/09/10 08:49:25;;;;;;;;;;;19.40;99.90;;;;;;1889511;76;20139;-68
2021/09/10 08:51:52;;;;;;;;;;;19.40;99.90;;;;;;1890613;76;20208;-68
2021/09/10 08:54:19;;;;;;;;;;;19.50;99.90;;;;;;1887197;76;20168;-68
2021/09/10 08:56:45;;;;;;;;;;;19.50;99.90;;;;;;1884947;76;20169;-68
2021/09/10 08:59:14;;;;;;;;;;;19.40;99.90;;;;;;1921922;75;20182;-68
2021/09/10 09:01:51;;;;;;;;;;;19.40;99.90;;;;;;1914257;74;20168;-68
2021/09/10 09:04:18;;;;;;;;;;;19.50;99.90;;;;;;1890741;76;20162;-68
2021/09/10 09:06:53;;;;;;;;;;;19.50;99.90;;;;;;1883828;75;20155;-68
2021/09/10 09:09:21;;;;;;;;;;;19.50;99.90;;;;;;1888995;75;20102;-68
2021/09/10 09:11:48;;;;;;;;;;;19.50;99.90;;;;;;1883783;75;20304;-68
2021/09/10 09:14:15;;;;;;;;;;;19.50;99.90;;;;;;1890903;76;20166;-69
2021/09/10 09:16:42;;;;;;;;;;;19.50;99.90;;;;;;1889493;76;20245;-69
2021/09/10 09:19:09;;;;;;;;;;;19.60;99.90;;;;;;1855198;76;20138;-68
2021/09/10 09:21:37;;;;;;;;;;;19.60;99.90;;;;;;1860339;76;20183;-68
2021/09/10 09:24:18;;;;;;;;;;;19.60;99.90;;;;;;1879493;76;20153;-68
2021/09/10 09:26:46;;;;;;;;;;;19.60;99.90;;;;;;1864217;75;20178;-68
2021/09/10 09:29:14;;;;;;;;;;;19.70;99.90;;;;;;1888292;75;20182;-68
2021/09/10 09:31:41;;;;;;;;;;;19.80;99.90;;;;;;1871567;75;20285;-68
2021/09/10 09:34:10;;;;;;;;;;;19.90;99.90;;;;;;1890999;76;20196;-68
2021/09/10 09:36:38;;;;;;;;;;;20.00;99.90;;;;;;1889246;76;20264;-68
2021/09/10 09:39:10;;;;;;;;;;;19.90;99.90;;;;;;1859808;76;20260;-68
2021/09/10 09:41:38;;;;;;;;;;;20.00;99.90;;;;;;1875201;76;20153;-69
2021/09/10 09:44:15;;;;;;;;;;;20.00;99.90;;;;;;1860523;76;20171;-69
2021/09/10 09:46:44;;;;;;;;;;;20.00;99.90;;;;;;1889818;75;20171;-68
2021/09/10 09:49:14;;;;;;;;;;;20.00;99.90;;;;;;1905095;75;20162;-66
2021/09/10 09:51:43;;;;;;;;;;;20.00;99.90;;;;;;1887561;75;20175;-68
2021/09/10 09:54:09;;;;;;;;;;;20.10;99.90;;;;;;1856067;77;20512;-68
2021/09/10 09:56:36;;;;;;;;;;;20.20;99.90;;;;;;1859135;76;20128;-68
2021/09/10 09:59:03;;;;;;;;;;;20.30;99.90;;;;;;1859097;77;20476;-68
2021/09/10 10:01:30;;;;;;;;;;;20.20;99.90;;;;;;1886453;75;20131;-68
2021/09/10 10:03:57;;;;;;;;;;;20.30;99.90;;;;;;1923793;74;20192;-68
2021/09/10 10:06:24;;;;;;;;;;;20.30;99.90;;;;;;1900611;75;20440;-68
2021/09/10 10:09:05;;;;;;;;;;;20.40;99.90;;;;;;1891672;70;20188;-69
2021/09/10 10:11:33;;;;;;;;;;;20.40;99.90;;;;;;1908456;73;20161;-69
2021/09/10 10:14:03;;;;;;;;;;;20.40;99.90;;;;;;1901467;75;20173;-71
2021/09/10 10:16:36;;;;;;;;;;;20.50;99.90;;;;;;1911183;73;20423;-70
2021/09/10 10:19:03;;;;;;;;;;;20.60;99.90;;;;;;1923424;73;20121;-70
2021/09/10 10:21:49;;;;;;;;;;;20.70;99.90;;;;;;1910784;73;20192;-70
2021/09/10 10:24:34;;;;;;;;;;;20.70;99.90;;;;;;1911976;74;20223;-70
2021/09/10 10:27:02;;;;;;;;;;;20.70;99.90;;;;;;1915669;73;20466;-70
2021/09/10 10:29:30;;;;;;;;;;;20.80;99.90;;;;;;1903002;73;20304;-70
2021/09/10 10:32:01;;;;;;;;;;;20.80;99.90;;;;;;1913057;73;20647;-70
2021/09/10 10:34:29;;;;;;;;;;;20.90;99.90;;;;;;1917653;73;20196;-70
2021/09/10 10:36:56;;;;;;;;;;;20.80;99.90;;;;;;1903946;73;21081;-70
2021/09/10 10:39:30;;;;;;;;;;;20.90;99.90;;;;;;1899278;74;20274;-70
2021/09/10 10:42:01;;;;;;;;;;;20.90;99.90;;;;;;1899675;73;20231;-69
2021/09/10 10:44:35;;;;;;;;;;;20.90;99.90;;;;;;1898840;73;20394;-70
2021/09/10 10:47:03;;;;;;;;;;;20.90;99.90;;;;;;1910970;73;20216;-70
2021/09/10 10:49:31;;;;;;;;;;;21.00;99.90;;;;;;1905579;73;20512;-70
2021/09/10 10:51:58;;;;;;;;;;;21.00;99.90;;;;;;1910250;73;20513;-70
2021/09/10 10:54:31;;;;;;;;;;;21.10;99.90;;;;;;1906254;73;20195;-68
2021/09/10 10:57:03;;;;;;;;;;;21.10;99.90;;;;;;1910132;73;20191;-73
2021/09/10 10:59:29;;;;;;;;;;;21.30;99.90;;;;;;1901064;73;20250;-70
2021/09/10 11:02:20;;;;;;;;;;;21.40;99.90;;;;;;1906585;73;20223;-70
2021/09/10 11:04:44;;;;;;;;;;;21.60;99.90;;;;;;1903354;73;20189;-71
2021/09/10 11:07:11;;;;;;;;;;;21.70;99.90;;;;;;1894838;74;20519;-70
2021/09/10 11:09:38;;;;;;;;;;;21.80;99.90;;;;;;1894096;75;20172;-71
2021/09/10 11:12:05;;;;;;;;;;;21.80;99.90;;;;;;1901823;73;20177;-70
2021/09/10 11:14:32;;;;;;;;;;;21.90;99.90;;;;;;1908688;74;20187;-70
2021/09/10 11:17:12;;;;;;;;;;;22.10;99.90;;;;;;1899648;73;20240;-70
2021/09/10 11:19:39;;;;;;;;;;;22.20;99.90;;;;;;1925154;74;20168;-71
2021/09/10 11:22:05;;;;;;;;;;;22.30;99.90;;;;;;1915145;73;20183;-71
2021/09/10 11:24:32;;;;;;;;;;;22.50;99.90;;;;;;1903940;73;20219;-71
2021/09/10 11:26:59;;;;;;;;;;;22.60;99.90;;;;;;1916994;73;20241;-70
2021/09/10 11:29:27;;;;;;;;;;;22.70;99.90;;;;;;1914751;73;20274;-70
2021/09/10 11:31:54;;;;;;;;;;;22.80;99.90;;;;;;1903511;73;20144;-73
2021/09/10 11:34:33;;;;;;;;;;;22.90;99.90;;;;;;1903306;73;20159;-69
2021/09/10 11:37:02;;;;;;;;;;;23.00;99.90;;;;;;1893667;75;20144;-71
2021/09/10 11:39:29;;;;;;;;;;;23.10;99.90;;;;;;1908293;73;20564;-70
2021/09/10 11:41:56;;;;;;;;;;;23.20;99.90;;;;;;1919683;73;20554;-71
2021/09/10 11:44:23;;;;;;;;;;;23.20;99.90;;;;;;1893738;76;20156;-71
2021/09/10 11:46:49;;;;;;;;;;;23.20;99.90;;;;;;1894466;74;20237;-71
2021/09/10 11:49:16;;;;;;;;;;;23.20;99.90;;;;;;1902220;74;20202;-70
2021/09/10 11:51:45;;;;;;;;;;;23.10;99.90;;;;;;1901419;73;20130;-69
2021/09/10 11:54:13;;;;;;;;;;;23.10;99.90;;;;;;1900019;74;20215;-71
2021/09/10 11:56:40;;;;;;;;;;;22.90;99.90;;;;;;1913332;73;20194;-69
2021/09/10 11:59:20;;;;;;;;;;;23.00;99.90;;;;;;1911366;73;20533;-70
2021/09/10 12:01:48;;;;;;;;;;;23.00;99.90;;;;;;1906443;73;20153;-70
2021/09/10 12:04:25;;;;;;;;;;;23.10;99.90;;;;;;1907268;73;20263;-70
2021/09/10 12:06:53;;;;;;;;;;;23.20;99.90;;;;;;1908164;73;20233;-69
2021/09/10 12:09:21;;;;;;;;;;;23.30;99.90;;;;;;1905548;73;20300;-70
2021/09/10 12:12:07;;;;;;;;;;;23.40;99.90;;;;;;1909096;73;20304;-69
2021/09/10 12:14:38;;;;;;;;;;;23.40;99.90;;;;;;1904312;73;20242;-69
2021/09/10 12:17:06;;;;;;;;;;;23.60;99.90;;;;;;1902415;73;20207;-70
2021/09/10 12:19:33;;;;;;;;;;;23.50;99.90;;;;;;1904508;73;20253;-70
2021/09/10 12:22:00;;;;;;;;;;;23.50;99.90;;;;;;1902923;73;20301;-70
2021/09/10 12:24:27;;;;;;;;;;;23.50;99.90;;;;;;1906548;73;20522;-70
2021/09/10 12:26:54;;;;;;;;;;;23.70;99.90;;;;;;1907219;73;20172;-71
2021/09/10 12:29:28;;;;;;;;;;;23.70;99.90;;;;;;1910984;73;20235;-71
2021/09/10 12:31:55;;;;;;;;;;;23.90;99.90;;;;;;1905926;73;20168;-70
2021/09/10 12:34:22;;;;;;;;;;;23.90;99.90;;;;;;1919262;73;20115;-71
2021/09/10 12:36:49;;;;;;;;;;;24.00;99.90;;;;;;1905074;73;20465;-70
2021/09/10 12:39:16;;;;;;;;;;;24.10;99.90;;;;;;1901183;73;20220;-70
2021/09/10 12:41:43;;;;;;;;;;;24.20;99.90;;;;;;1910781;73;20227;-70
2021/09/10 12:44:11;;;;;;;;;;;24.10;99.90;;;;;;1906300;73;20410;-70
2021/09/10 12:46:38;;;;;;;;;;;24.10;99.90;;;;;;1903604;73;20171;-71
2021/09/10 12:49:06;;;;;;;;;;;24.00;99.90;;;;;;1913873;74;20296;-70
2021/09/10 12:51:33;;;;;;;;;;;24.00;99.90;;;;;;1937589;73;20197;-69
2021/09/10 12:54:00;;;;;;;;;;;24.00;99.90;;;;;;1853536;75;20209;-70
2021/09/10 12:56:27;;;;;;;;;;;24.10;99.90;;;;;;1857247;75;20895;-69
2021/09/10 12:58:54;;;;;;;;;;;24.00;99.90;;;;;;1847798;76;20256;-70
2021/09/10 13:01:21;;;;;;;;;;;24.10;99.90;;;;;;1842632;76;20160;-70
2021/09/10 13:03:47;;;;;;;;;;;24.20;99.90;;;;;;1843704;77;21104;-71
2021/09/10 13:06:14;;;;;;;;;;;24.40;99.90;;;;;;1840642;74;20246;-70
2021/09/10 13:08:41;;;;;;;;;;;24.60;99.90;;;;;;1837596;77;20597;-71
2021/09/10 13:11:09;;;;;;;;;;;24.70;99.90;;;;;;1858859;75;20269;-69
2021/09/10 13:13:35;;;;;;;;;;;24.60;99.90;;;;;;1861286;75;20161;-70
2021/09/10 13:16:04;;;;;;;;;;;24.50;99.90;;;;;;1858150;76;20477;-70
2021/09/10 13:18:30;;;;;;;;;;;24.60;99.90;;;;;;1858844;76;20177;-70
2021/09/10 13:20:58;;;;;;;;;;;24.70;99.90;;;;;;1851312;75;21019;-70
2021/09/10 13:23:24;;;;;;;;;;;24.80;99.90;;;;;;1854415;75;20514;-70
2021/09/10 13:25:51;;;;;;;;;;;25.10;99.90;;;;;;1854760;75;20107;-70
2021/09/10 13:28:18;;;;;;;;;;;24.90;99.90;;;;;;1856230;75;20177;-70
2021/09/10 13:30:45;;;;;;;;;;;25.10;99.90;;;;;;1857051;75;20230;-70
2021/09/10 13:33:12;;;;;;;;;;;25.10;99.90;;;;;;1844051;75;20160;-69
2021/09/10 13:35:38;;;;;;;;;;;25.20;99.90;;;;;;1859599;75;20199;-69
2021/09/10 13:38:05;;;;;;;;;;;25.20;99.90;;;;;;1852670;77;20270;-70
2021/09/10 13:40:32;;;;;;;;;;;25.10;99.90;;;;;;1855861;76;20180;-69
2021/09/10 13:42:59;;;;;;;;;;;24.90;99.90;;;;;;1859595;75;20228;-70
2021/09/10 13:45:26;;;;;;;;;;;24.80;99.90;;;;;;1854321;75;20240;-71
2021/09/10 13:47:53;;;;;;;;;;;24.90;99.90;;;;;;1860625;76;20248;-70
2021/09/10 13:50:21;;;;;;;;;;;24.90;99.90;;;;;;1837125;75;20316;-70
2021/09/10 13:52:47;;;;;;;;;;;24.90;99.90;;;;;;1849226;76;20182;-70
2021/09/10 13:55:14;;;;;;;;;;;24.80;99.90;;;;;;1845397;77;20126;-71
2021/09/10 13:57:41;;;;;;;;;;;24.70;99.90;;;;;;1838489;75;20187;-68
2021/09/10 14:00:08;;;;;;;;;;;24.80;99.90;;;;;;1855183;77;20236;-70
2021/09/10 14:02:35;;;;;;;;;;;25.00;99.90;;;;;;1851130;76;20186;-69
2021/09/10 14:05:02;;;;;;;;;;;25.00;99.90;;;;;;1853262;75;20417;-71
2021/09/10 14:07:29;;;;;;;;;;;24.80;99.90;;;;;;1845429;76;20541;-72
2021/09/10 14:09:56;;;;;;;;;;;24.80;99.90;;;;;;1841448;77;20199;-73
2021/09/10 14:12:23;;;;;;;;;;;24.90;99.90;;;;;;1846983;75;20218;-73
2021/09/10 14:14:51;;;;;;;;;;;25.00;99.90;;;;;;1852274;75;20170;-72
2021/09/10 14:17:18;;;;;;;;;;;24.90;99.90;;;;;;1843037;75;20189;-72
2021/09/10 14:19:45;;;;;;;;;;;24.80;99.90;;;;;;1855181;76;20169;-71
2021/09/10 14:22:12;;;;;;;;;;;24.80;99.90;;;;;;1847100;75;20249;-73